首页
METAR-TAF:

METAR-TAF

机场 :

馬塔烏圖機場

瓦利斯, 法国

纬度: 13-14S, 经度: 176-10W, 海拔: 23米

METAR: 丢失

时间: 12:11 (00:11 UTC)

预报

该预报发布于1小时和11分钟前的23:00 UTC
预报有效从17日的 00点(UTC)到 17日的 24点(UTC)
风速10节,风向
能见度10公里或以上
散云层高于2500英尺
散云层高于4000英尺
短暂存在
从 17日的 00点(UTC)到 17日的 10点(UTC)
少量云层高于2000英尺, 塔状积云.
阵雨
短暂存在
从 17日的 10点(UTC)到 17日的 18点(UTC)
能見度: 3500
少量云层高于2000英尺, 塔状积云.
阵雨

TAF: NLWW 162300Z 1700/1724 10010KT 9999 SCT025 SCT040 TEMPO 1700/1710 SHRA FEW020TCU TEMPO 1710/1718 3500 SHRA FEW020TCU

超过4000个机场的气象观测和天气预报(METAR&TAF报告)。

可查询的气象台以黄色和红色小点在地图上表示。

将鼠标移到小点上方,可查看气象台名称。

然后点击查看天气观测和预报。

如需切换地图:点击带黑十字的绿色按钮放大地图;点击带横线的绿色按钮缩小地图;或者点击绿色箭头查看邻近地区的地图。


METAR-TAF: